Last 30 Days

Kelseyville-South

Daily Data | America/Los_Angeles
as of 6/19/21 5:37 PM PDT
Date Daily Max Temp (°F) Time of Max Temp Daily Min Temp (°F) Time of Min Temp Daily Rain (In) Monthly Rain (In) Seasonal Rainfall (In) Wind Spd (mph) Daily Max Wind (mph) Time of Max Wind Max Wind Dir (°) Daily ETo (in) 7 Day ETo (in) Daily Solar Rad (Cal/cm2) Dew Pt (°F) Max RH (%) Min RH (%) Daily Leaf Wet Hrs (hrs) Hrs 70-85F (hrs) Hrs > 95F (hrs) Powdery Mildew Stress (pts) GDDs (DL) GDDs (Mx/Mn) Seas GDDs (DL) Seas GDDs (Smpl) Hrs <= 32F (hrs) Hrs <= 28F (hrs) Chilling <=45F (hrs) Chill Hrs 32-45F (hrs) Utah Chilling (Units) Degree Hrs (hrs) Max 1 Min Rain (In) Max 1 Min Rain Time Max 15 Min Rain (In) Max 15 Min Precip Time Max 60 Min Rain (In) Max 60 Min Rain Time Bat Volt Min Day (V)
6/18/21 105.5 1615 53.5 0601 0.00 0.00 8.98 3.2 15.8 1812 WSW | 246 0.325 1.97 810 43.5 82 3 0.0 2.52 7.25 50 30.4 29.5 1,008 825 0.0 0.0 0.0 0.0 -18.0 417.6 - - - - - - 12.7
6/17/21 103.0 1551 50.0 0550 0.00 0.00 8.98 3.0 20.9 1614 W | 276 0.321 1.88 829 41.5 86 5 0.0 2.83 6.52 60 27.6 26.5 978 796 0.0 0.0 0.0 0.0 -15.5 369.2 - - - - - - 12.7
6/16/21 96.4 1636 44.7 0601 0.00 0.00 8.98 2.6 14.2 1711 WSW | 242 0.291 1.81 808 43.1 95 7 0.0 2.96 0.75 70 22.1 20.5 950 769 0.0 0.0 0.1 0.1 -11.5 269.8 - - - - - - 12.7
6/15/21 83.9 1617 43.5 0557 0.00 0.00 8.98 3.9 22.5 1704 W | 279 0.275 1.76 826 41.6 93 14 0.0 9.36 0.00 80 14.6 13.7 928 749 0.0 0.0 1.0 1.0 -7.5 129.6 - - - - - - 12.7
6/14/21 77.1 1452 50.1 0002 0.00 0.00 8.98 5.9 20.9 1508 W | 271 0.268 1.72 810 48.0 95 26 0.0 8.19 0.00 60 15.3 13.6 914 735 0.0 0.0 0.0 0.0 -13.5 78.9 - - - - - - 12.8
6/13/21 81.7 1424 52.1 0538 0.00 0.00 8.98 6.1 18.8 1550 SW | 230 0.263 1.72 803 55.0 98 32 1.4 8.79 0.00 40 17.1 16.9 898 721 0.0 0.0 0.0 0.0 -15.0 109.1 - - - - - - 12.8
6/12/21 83.1 1533 56.1 0622 0.00 0.00 8.98 4.5 17.2 1708 WNW | 298 0.229 1.76 660 55.4 92 36 0.0 11.09 0.00 20 18.9 19.6 881 704 0.0 0.0 0.0 0.0 -16.5 148.3 - - - - - - 12.7
6/11/21 74.9 1513 44.7 0554 0.00 0.00 8.98 4.6 17.2 1420 W | 271 0.237 1.83 723 39.9 84 25 0.0 5.29 0.00 0 11.8 9.8 862 685 0.0 0.0 0.3 0.3 -7.5 49.2 - - - - - - 12.7
6/10/21 73.7 1649 36.8 0441 0.00 0.00 8.98 3.8 21.5 1651 SW | 219 0.246 1.90 832 33.4 97 9 0.9 2.94 0.00 0 8.2 5.3 850 675 0.0 0.0 6.1 6.1 0.5 28.1 - - - - - - 12.7
6/9/21 67.5 1436 37.6 0510 0.00 0.00 8.98 5.9 22.5 1538 W | 279 0.240 1.98 835 36.7 94 28 0.0 0.00 0.00 0 6.0 2.6 842 670 0.0 0.0 7.4 7.4 4.5 2.2 - - - - - - 12.7
6/8/21 68.4 1514 38.7 0533 0.00 0.00 8.98 5.8 20.5 1324 W | 275 0.242 2.06 829 35.9 94 22 0.0 0.00 0.00 10 6.4 3.5 836 667 0.0 0.0 6.6 6.6 3.5 5.1 - - - - - - 12.7
6/7/21 74.4 1333 40.4 0547 0.00 0.00 8.98 6.1 21.5 1340 W | 281 0.263 2.14 797 34.0 84 10 0.0 5.19 0.00 20 9.2 7.4 830 664 0.0 0.0 3.9 3.9 -2.0 41.2 - - - - - - 12.7
6/6/21 83.9 1331 48.0 0544 0.00 0.00 8.98 5.3 24.9 1726 W | 275 0.305 2.17 817 39.0 84 9 0.0 10.11 0.00 30 15.6 15.9 821 656 0.0 0.0 0.0 0.0 -10.0 141.7 - - - - - - 12.7
6/5/21 90.1 1436 51.1 0601 0.00 0.00 8.98 3.9 18.5 1543 WNW | 301 0.294 2.17 786 41.8 84 11 0.0 3.97 0.00 10 20.4 20.6 805 640 0.0 0.0 0.0 0.0 -13.5 215.5 - - - - - - 12.7
6/4/21 91.5 1426 52.0 0558 0.00 0.00 8.98 4.3 19.2 1739 W | 270 0.309 2.17 810 46.2 76 19 0.1 3.91 0.00 20 22.7 21.8 785 620 0.0 0.0 0.0 0.0 -15.5 246.1 - - - - - - 12.8
6/3/21 95.6 1418 55.3 0558 0.00 0.00 8.98 4.4 24.2 1628 WNW | 303 0.330 2.13 797 46.0 84 11 0.0 3.71 0.41 30 26.2 25.4 762 598 0.0 0.0 0.0 0.0 -18.5 305.3 - - - - - - 12.8
6/2/21 94.9 1525 51.7 0550 0.00 0.00 8.98 3.9 17.2 1412 WSW | 258 0.313 2.07 794 49.6 86 16 0.0 2.92 0.00 40 25.5 23.3 736 573 0.0 0.0 0.0 0.0 -17.0 309.3 - - - - - - 12.7
6/1/21 100.2 1505 55.4 0601 0.00 0.00 8.98 3.7 16.2 1737 SSW | 193 0.323 2.01 790 43.3 75 5 0.0 2.82 5.73 50 28.8 27.8 710 549 0.0 0.0 0.0 0.0 -18.5 364.7 - - - - - - 12.8
5/31/21 100.3 1553 51.8 0557 0.00 0.03 8.98 2.9 18.8 1733 WNW | 294 0.301 1.93 788 42.6 80 9 0.0 2.91 6.10 60 27.6 26.1 681 522 0.0 0.0 0.0 0.0 -17.0 358.6 - - - - - - 12.8
5/30/21 96.2 1528 47.6 0600 0.00 0.03 8.98 3.3 19.8 1449 SW | 225 0.304 1.89 793 41.1 82 8 0.0 3.06 1.27 70 23.4 21.9 654 496 0.0 0.0 0.0 0.0 -14.0 283.9 - - - - - - 12.7
5/29/21 87.4 1543 47.7 0601 0.00 0.03 8.98 4.2 17.2 1349 W | 268 0.291 1.84 778 44.5 85 18 0.0 4.47 0.00 80 19.4 17.5 630 474 0.0 0.0 0.0 0.0 -13.5 197.9 - - - - - - 12.8
5/28/21 87.6 1546 45.9 0605 0.00 0.03 8.98 3.5 19.2 1552 SW | 216 0.271 1.76 774 46.7 97 18 0.0 5.24 0.00 90 17.9 16.7 611 456 0.0 0.0 0.0 0.0 -10.5 172.5 - - - - - - 12.7
5/27/21 81.9 1425 40.6 0415 0.00 0.03 8.98 4.2 18.8 1821 W | 269 0.266 1.70 784 42.4 90 17 0.0 10.02 0.00 100 14.8 11.2 593 439 0.0 0.0 3.7 3.7 -7.0 123.9 - - - - - - 12.7
5/26/21 83.0 1519 41.8 0552 0.00 0.03 8.98 3.4 18.8 1603 WSW | 251 0.259 1.65 761 41.3 95 15 0.0 8.92 0.00 100 13.4 12.4 578 428 0.0 0.0 4.2 4.2 -3.5 121.4 - - - - - - 12.7
5/25/21 76.4 1513 43.1 0544 0.00 0.03 8.98 4.3 16.5 1509 W | 260 0.238 1.63 774 45.5 99 30 3.0 6.78 0.00 100 10.8 9.8 565 416 0.0 0.0 1.1 1.1 -5.0 62.8 - - - - - - 12.7
5/24/21 80.4 1607 41.4 0452 0.00 0.03 8.98 4.0 19.2 1650 W | 266 0.262 1.66 768 40.6 92 19 0.0 9.26 0.00 100 13.5 10.9 554 406 0.0 0.0 4.1 4.1 -5.0 112.8 - - - - - - 12.7
5/23/21 77.5 1559 45.0 0559 0.00 0.03 8.98 3.9 15.8 1658 WNW | 289 0.248 1.67 773 37.9 73 22 0.0 7.96 0.00 80 12.0 11.2 540 395 0.0 0.0 0.0 0.0 -6.0 76.7 - - - - - - 12.7
5/22/21 73.3 1433 39.2 0505 0.00 0.03 8.98 3.8 17.2 1644 SW | 225 0.212 1.67 632 36.5 94 18 0.0 3.48 0.00 60 10.3 6.3 528 384 0.0 0.0 5.9 5.9 -3.5 41.6 - - - - - - 12.7
5/21/21 67.6 1607 33.8 0528 0.01 0.03 8.98 4.1 17.5 1731 NW | 305 0.215 1.65 756 36.0 98 20 6.5 0.00 0.00 70 6.5 0.7 518 378 0.0 0.0 6.8 6.8 2.0 5.2 0.01 1107 0.01 1121 0.01 1206 12.6
5/20/21 63.4 1541 37.4 0551 0.02 0.02 8.97 6.7 24.9 1418 WNW | 294 0.220 1.72 810 32.8 97 26 5.9 0.00 0.00 80 3.7 0.4 512 377 0.0 0.0 10.9 10.9 11.0 0.0 0.01 1936 0.02 1945 0.02 2030 12.7
Max 105.5 - 56.1 - 0.02 0.03 - 6.7 24.9 - - 0.330 - 835 55.4 99 36 6.5 11.09 7.25 - 30.4 29.5 - - 0.0 0.0 10.9 10.9 11.0 417.6 0.01 - 0.02 - 0.02 - 12.8
Avg - - - - - 0.01 - 4.3 - - - - - - 42.1 - - - 4.96 0.93 - 16.7 15.0 - - 0.0 0.0 2.1 2.1 -8.8 - - - - - - - -
Min 63.4 - 33.8 - 0.00 0.00 - 2.6 14.2 - - 0.212 - 632 32.8 73 3 0.0 0.00 0.00 - 3.7 0.4 - - 0.0 0.0 0.0 0.0 -18.5 0.0 0.01 - 0.01 - 0.01 - 12.6
Total - - - - - - - - - - - - - - - - - - 148.70 28.02 - 500.1 448.8 - - 0.0 0.0 62.2 62.2 -263.5 - - - - - - - -